sensor_id;sensor_type;location;lat;lon;timestamp;P1;durP1;ratioP1;P2;durP2;ratioP2
5416;SDS011;2731;50.754;12.990;2023-02-26T00:01:36;2.00;;;1.52;;
5416;SDS011;2731;50.754;12.990;2023-02-26T00:04:04;2.58;;;1.90;;
5416;SDS011;2731;50.754;12.990;2023-02-26T00:06:31;3.10;;;2.50;;
5416;SDS011;2731;50.754;12.990;2023-02-26T00:08:57;9.13;;;2.30;;
5416;SDS011;2731;50.754;12.990;2023-02-26T00:11:24;2.53;;;1.50;;
5416;SDS011;2731;50.754;12.990;2023-02-26T00:13:53;6.50;;;1.63;;
5416;SDS011;2731;50.754;12.990;2023-02-26T00:16:31;2.45;;;1.52;;
5416;SDS011;2731;50.754;12.990;2023-02-26T00:18:59;2.15;;;1.30;;
5416;SDS011;2731;50.754;12.990;2023-02-26T00:21:26;3.10;;;1.40;;
5416;SDS011;2731;50.754;12.990;2023-02-26T00:23:54;2.20;;;1.63;;
5416;SDS011;2731;50.754;12.990;2023-02-26T00:26:21;2.35;;;1.30;;
5416;SDS011;2731;50.754;12.990;2023-02-26T00:28:49;5.28;;;2.15;;
5416;SDS011;2731;50.754;12.990;2023-02-26T00:31:17;5.25;;;1.67;;
5416;SDS011;2731;50.754;12.990;2023-02-26T00:34:09;3.00;;;1.60;;
5416;SDS011;2731;50.754;12.990;2023-02-26T00:36:43;3.35;;;1.60;;
5416;SDS011;2731;50.754;12.990;2023-02-26T00:39:31;2.38;;;1.50;;
5416;SDS011;2731;50.754;12.990;2023-02-26T00:42:02;2.95;;;2.13;;
5416;SDS011;2731;50.754;12.990;2023-02-26T00:44:30;5.90;;;1.92;;
5416;SDS011;2731;50.754;12.990;2023-02-26T00:49:49;4.93;;;2.10;;
5416;SDS011;2731;50.754;12.990;2023-02-26T00:54:51;3.25;;;2.50;;
5416;SDS011;2731;50.754;12.990;2023-02-26T00:57:20;3.28;;;2.15;;
5416;SDS011;2731;50.754;12.990;2023-02-26T00:59:49;6.55;;;3.78;;
5416;SDS011;2731;50.754;12.990;2023-02-26T01:02:16;7.45;;;2.00;;
5416;SDS011;2731;50.754;12.990;2023-02-26T01:04:44;5.05;;;1.90;;
5416;SDS011;2731;50.754;12.990;2023-02-26T01:07:13;3.20;;;1.85;;
5416;SDS011;2731;50.754;12.990;2023-02-26T01:09:41;4.47;;;2.20;;
5416;SDS011;2731;50.754;12.990;2023-02-26T01:12:10;2.33;;;1.80;;
5416;SDS011;2731;50.754;12.990;2023-02-26T01:14:39;3.58;;;2.33;;
5416;SDS011;2731;50.754;12.990;2023-02-26T01:17:14;4.43;;;2.58;;
5416;SDS011;2731;50.754;12.990;2023-02-26T01:20:01;3.80;;;2.45;;
5416;SDS011;2731;50.754;12.990;2023-02-26T01:22:33;7.00;;;2.17;;
5416;SDS011;2731;50.754;12.990;2023-02-26T01:25:02;3.92;;;2.08;;
5416;SDS011;2731;50.754;12.990;2023-02-26T01:27:30;2.90;;;1.95;;
5416;SDS011;2731;50.754;12.990;2023-02-26T01:29:57;2.35;;;1.45;;
5416;SDS011;2731;50.754;12.990;2023-02-26T01:38:00;4.32;;;2.17;;
5416;SDS011;2731;50.754;12.990;2023-02-26T01:43:58;2.45;;;1.50;;
5416;SDS011;2731;50.754;12.990;2023-02-26T01:46:13;2.53;;;1.67;;
5416;SDS011;2731;50.754;12.990;2023-02-26T01:48:54;3.60;;;2.20;;
5416;SDS011;2731;50.754;12.990;2023-02-26T01:51:41;4.00;;;1.60;;
5416;SDS011;2731;50.754;12.990;2023-02-26T01:54:11;2.80;;;1.95;;
5416;SDS011;2731;50.754;12.990;2023-02-26T01:56:39;3.00;;;1.92;;
5416;SDS011;2731;50.754;12.990;2023-02-26T01:59:07;2.75;;;1.73;;
5416;SDS011;2731;50.754;12.990;2023-02-26T02:01:38;3.38;;;2.15;;
5416;SDS011;2731;50.754;12.990;2023-02-26T02:04:07;2.88;;;2.08;;
5416;SDS011;2731;50.754;12.990;2023-02-26T02:06:36;3.45;;;2.20;;
5416;SDS011;2731;50.754;12.990;2023-02-26T02:09:05;2.60;;;1.80;;
5416;SDS011;2731;50.754;12.990;2023-02-26T02:11:31;3.60;;;2.20;;
5416;SDS011;2731;50.754;12.990;2023-02-26T02:14:09;3.00;;;2.33;;
5416;SDS011;2731;50.754;12.990;2023-02-26T02:17:01;4.22;;;1.90;;
5416;SDS011;2731;50.754;12.990;2023-02-26T02:27:57;2.60;;;1.67;;
5416;SDS011;2731;50.754;12.990;2023-02-26T02:33:15;2.92;;;1.73;;
5416;SDS011;2731;50.754;12.990;2023-02-26T02:36:00;3.25;;;2.28;;
5416;SDS011;2731;50.754;12.990;2023-02-26T02:41:10;1.92;;;1.50;;
5416;SDS011;2731;50.754;12.990;2023-02-26T02:43:38;3.92;;;1.98;;
5416;SDS011;2731;50.754;12.990;2023-02-26T02:46:16;3.78;;;2.47;;
5416;SDS011;2731;50.754;12.990;2023-02-26T02:51:13;2.42;;;1.88;;
5416;SDS011;2731;50.754;12.990;2023-02-26T02:54:53;2.65;;;1.88;;
5416;SDS011;2731;50.754;12.990;2023-02-26T02:56:49;1.92;;;1.58;;
5416;SDS011;2731;50.754;12.990;2023-02-26T02:59:38;2.30;;;1.77;;
5416;SDS011;2731;50.754;12.990;2023-02-26T03:02:07;5.82;;;2.00;;
5416;SDS011;2731;50.754;12.990;2023-02-26T03:04:36;2.75;;;1.88;;
5416;SDS011;2731;50.754;12.990;2023-02-26T03:07:04;5.38;;;2.25;;
5416;SDS011;2731;50.754;12.990;2023-02-26T03:09:31;3.42;;;2.22;;
5416;SDS011;2731;50.754;12.990;2023-02-26T03:12:00;2.83;;;2.35;;
5416;SDS011;2731;50.754;12.990;2023-02-26T03:14:27;2.63;;;1.75;;
5416;SDS011;2731;50.754;12.990;2023-02-26T03:30:14;3.10;;;1.90;;
5416;SDS011;2731;50.754;12.990;2023-02-26T03:32:45;2.28;;;1.70;;
5416;SDS011;2731;50.754;12.990;2023-02-26T03:35:15;4.50;;;2.00;;
5416;SDS011;2731;50.754;12.990;2023-02-26T03:37:47;2.83;;;1.98;;
5416;SDS011;2731;50.754;12.990;2023-02-26T03:40:25;2.03;;;1.30;;
5416;SDS011;2731;50.754;12.990;2023-02-26T03:43:05;2.22;;;1.63;;
5416;SDS011;2731;50.754;12.990;2023-02-26T03:45:33;1.95;;;1.30;;
5416;SDS011;2731;50.754;12.990;2023-02-26T03:48:01;2.38;;;1.40;;
5416;SDS011;2731;50.754;12.990;2023-02-26T03:50:42;2.30;;;1.63;;
5416;SDS011;2731;50.754;12.990;2023-02-26T03:53:21;1.88;;;1.50;;
5416;SDS011;2731;50.754;12.990;2023-02-26T03:55:51;6.55;;;1.85;;
5416;SDS011;2731;50.754;12.990;2023-02-26T03:58:20;3.88;;;1.55;;
5416;SDS011;2731;50.754;12.990;2023-02-26T04:00:47;4.28;;;2.25;;
5416;SDS011;2731;50.754;12.990;2023-02-26T04:03:21;2.00;;;1.80;;
5416;SDS011;2731;50.754;12.990;2023-02-26T04:06:06;2.45;;;1.77;;
5416;SDS011;2731;50.754;12.990;2023-02-26T04:08:36;1.67;;;1.48;;
5416;SDS011;2731;50.754;12.990;2023-02-26T04:11:05;2.63;;;2.00;;
5416;SDS011;2731;50.754;12.990;2023-02-26T04:13:33;2.63;;;1.80;;
5416;SDS011;2731;50.754;12.990;2023-02-26T04:16:01;3.95;;;2.20;;
5416;SDS011;2731;50.754;12.990;2023-02-26T04:18:28;3.03;;;1.83;;
5416;SDS011;2731;50.754;12.990;2023-02-26T04:20:58;3.13;;;1.50;;
5416;SDS011;2731;50.754;12.990;2023-02-26T04:23:34;4.70;;;1.70;;
5416;SDS011;2731;50.754;12.990;2023-02-26T04:26:02;3.55;;;1.98;;
5416;SDS011;2731;50.754;12.990;2023-02-26T04:28:30;3.55;;;1.70;;
5416;SDS011;2731;50.754;12.990;2023-02-26T04:30:57;1.70;;;1.55;;
5416;SDS011;2731;50.754;12.990;2023-02-26T04:33:23;2.10;;;1.67;;
5416;SDS011;2731;50.754;12.990;2023-02-26T04:35:52;4.85;;;2.25;;
5416;SDS011;2731;50.754;12.990;2023-02-26T04:38:19;2.38;;;2.00;;
5416;SDS011;2731;50.754;12.990;2023-02-26T04:40:49;4.53;;;1.83;;
5416;SDS011;2731;50.754;12.990;2023-02-26T04:43:16;1.85;;;1.63;;
5416;SDS011;2731;50.754;12.990;2023-02-26T04:45:46;4.15;;;1.98;;
5416;SDS011;2731;50.754;12.990;2023-02-26T04:48:14;3.17;;;2.25;;
5416;SDS011;2731;50.754;12.990;2023-02-26T04:50:42;2.70;;;2.00;;
5416;SDS011;2731;50.754;12.990;2023-02-26T04:53:09;5.75;;;1.80;;
5416;SDS011;2731;50.754;12.990;2023-02-26T04:55:35;3.10;;;2.13;;
5416;SDS011;2731;50.754;12.990;2023-02-26T04:58:02;2.33;;;1.83;;
5416;SDS011;2731;50.754;12.990;2023-02-26T05:00:29;2.42;;;1.90;;
5416;SDS011;2731;50.754;12.990;2023-02-26T05:02:56;2.58;;;1.88;;
5416;SDS011;2731;50.754;12.990;2023-02-26T05:05:22;3.08;;;1.77;;
5416;SDS011;2731;50.754;12.990;2023-02-26T05:07:52;2.22;;;1.98;;
5416;SDS011;2731;50.754;12.990;2023-02-26T05:10:23;2.10;;;1.70;;
5416;SDS011;2731;50.754;12.990;2023-02-26T05:12:50;1.90;;;1.60;;
5416;SDS011;2731;50.754;12.990;2023-02-26T05:15:17;3.03;;;2.13;;
5416;SDS011;2731;50.754;12.990;2023-02-26T05:17:46;2.78;;;2.08;;
5416;SDS011;2731;50.754;12.990;2023-02-26T05:20:13;2.72;;;2.38;;
5416;SDS011;2731;50.754;12.990;2023-02-26T05:22:45;2.05;;;1.63;;
5416;SDS011;2731;50.754;12.990;2023-02-26T05:25:12;3.28;;;2.33;;
5416;SDS011;2731;50.754;12.990;2023-02-26T05:27:40;2.78;;;2.15;;
5416;SDS011;2731;50.754;12.990;2023-02-26T05:30:10;4.22;;;2.15;;
5416;SDS011;2731;50.754;12.990;2023-02-26T05:32:37;2.53;;;1.85;;
5416;SDS011;2731;50.754;12.990;2023-02-26T05:35:05;5.47;;;2.05;;
5416;SDS011;2731;50.754;12.990;2023-02-26T05:37:34;2.28;;;1.67;;
5416;SDS011;2731;50.754;12.990;2023-02-26T05:40:04;2.92;;;2.08;;
5416;SDS011;2731;50.754;12.990;2023-02-26T05:42:37;3.33;;;2.22;;
5416;SDS011;2731;50.754;12.990;2023-02-26T05:45:04;2.83;;;1.90;;
5416;SDS011;2731;50.754;12.990;2023-02-26T05:47:34;3.08;;;1.92;;
5416;SDS011;2731;50.754;12.990;2023-02-26T05:50:03;2.70;;;1.98;;
5416;SDS011;2731;50.754;12.990;2023-02-26T05:52:29;4.75;;;2.50;;
5416;SDS011;2731;50.754;12.990;2023-02-26T05:54:56;4.50;;;2.78;;
5416;SDS011;2731;50.754;12.990;2023-02-26T05:57:25;5.40;;;3.17;;
5416;SDS011;2731;50.754;12.990;2023-02-26T05:59:52;3.95;;;2.97;;
5416;SDS011;2731;50.754;12.990;2023-02-26T06:02:19;3.75;;;2.28;;
5416;SDS011;2731;50.754;12.990;2023-02-26T06:04:48;6.03;;;2.70;;
5416;SDS011;2731;50.754;12.990;2023-02-26T06:07:14;4.65;;;3.08;;
5416;SDS011;2731;50.754;12.990;2023-02-26T06:09:41;5.13;;;3.17;;
5416;SDS011;2731;50.754;12.990;2023-02-26T06:12:09;4.20;;;2.78;;
5416;SDS011;2731;50.754;12.990;2023-02-26T06:14:35;3.72;;;2.88;;
5416;SDS011;2731;50.754;12.990;2023-02-26T06:17:03;5.60;;;2.97;;
5416;SDS011;2731;50.754;12.990;2023-02-26T06:19:29;4.20;;;2.97;;
5416;SDS011;2731;50.754;12.990;2023-02-26T06:21:56;5.28;;;2.83;;
5416;SDS011;2731;50.754;12.990;2023-02-26T06:24:25;4.53;;;2.85;;
5416;SDS011;2731;50.754;12.990;2023-02-26T06:26:54;4.68;;;2.78;;
5416;SDS011;2731;50.754;12.990;2023-02-26T06:29:21;4.03;;;2.90;;
5416;SDS011;2731;50.754;12.990;2023-02-26T06:31:48;5.28;;;2.90;;
5416;SDS011;2731;50.754;12.990;2023-02-26T06:34:16;4.78;;;2.40;;
5416;SDS011;2731;50.754;12.990;2023-02-26T06:36:43;5.60;;;3.33;;
5416;SDS011;2731;50.754;12.990;2023-02-26T06:39:10;4.82;;;2.65;;
5416;SDS011;2731;50.754;12.990;2023-02-26T06:41:38;5.93;;;3.58;;
5416;SDS011;2731;50.754;12.990;2023-02-26T06:44:04;4.35;;;2.78;;
5416;SDS011;2731;50.754;12.990;2023-02-26T06:46:32;3.47;;;2.80;;
5416;SDS011;2731;50.754;12.990;2023-02-26T06:48:59;4.20;;;2.80;;
5416;SDS011;2731;50.754;12.990;2023-02-26T06:51:25;4.18;;;3.00;;
5416;SDS011;2731;50.754;12.990;2023-02-26T06:53:53;5.53;;;2.88;;
5416;SDS011;2731;50.754;12.990;2023-02-26T06:56:21;7.95;;;2.78;;
5416;SDS011;2731;50.754;12.990;2023-02-26T06:58:48;12.05;;;5.18;;
5416;SDS011;2731;50.754;12.990;2023-02-26T07:01:16;4.63;;;2.80;;
5416;SDS011;2731;50.754;12.990;2023-02-26T07:03:44;4.10;;;2.65;;
5416;SDS011;2731;50.754;12.990;2023-02-26T07:06:13;7.07;;;3.10;;
5416;SDS011;2731;50.754;12.990;2023-02-26T07:08:42;3.65;;;2.72;;
5416;SDS011;2731;50.754;12.990;2023-02-26T07:11:09;7.97;;;3.40;;
5416;SDS011;2731;50.754;12.990;2023-02-26T07:13:36;5.22;;;2.95;;
5416;SDS011;2731;50.754;12.990;2023-02-26T07:16:05;5.45;;;2.65;;
5416;SDS011;2731;50.754;12.990;2023-02-26T07:18:34;4.30;;;2.58;;
5416;SDS011;2731;50.754;12.990;2023-02-26T07:21:02;4.43;;;2.53;;
5416;SDS011;2731;50.754;12.990;2023-02-26T07:23:31;6.50;;;3.08;;
5416;SDS011;2731;50.754;12.990;2023-02-26T07:25:57;3.97;;;3.15;;
5416;SDS011;2731;50.754;12.990;2023-02-26T07:28:46;5.45;;;2.70;;
5416;SDS011;2731;50.754;12.990;2023-02-26T07:31:14;3.90;;;2.80;;
5416;SDS011;2731;50.754;12.990;2023-02-26T07:33:42;10.13;;;3.40;;
5416;SDS011;2731;50.754;12.990;2023-02-26T07:36:11;4.68;;;2.20;;
5416;SDS011;2731;50.754;12.990;2023-02-26T07:38:39;7.45;;;2.97;;
5416;SDS011;2731;50.754;12.990;2023-02-26T07:41:05;5.53;;;3.40;;
5416;SDS011;2731;50.754;12.990;2023-02-26T07:43:34;5.72;;;2.53;;
5416;SDS011;2731;50.754;12.990;2023-02-26T07:46:03;5.82;;;1.95;;
5416;SDS011;2731;50.754;12.990;2023-02-26T07:48:30;6.70;;;2.60;;
5416;SDS011;2731;50.754;12.990;2023-02-26T07:51:02;4.50;;;2.10;;
5416;SDS011;2731;50.754;12.990;2023-02-26T07:53:30;7.72;;;2.30;;
5416;SDS011;2731;50.754;12.990;2023-02-26T07:55:57;4.80;;;2.40;;
5416;SDS011;2731;50.754;12.990;2023-02-26T07:58:24;5.90;;;2.97;;
5416;SDS011;2731;50.754;12.990;2023-02-26T08:00:52;4.22;;;2.40;;
5416;SDS011;2731;50.754;12.990;2023-02-26T08:03:20;3.47;;;1.70;;
5416;SDS011;2731;50.754;12.990;2023-02-26T08:05:47;1.52;;;1.42;;
5416;SDS011;2731;50.754;12.990;2023-02-26T08:08:13;2.35;;;1.95;;
5416;SDS011;2731;50.754;12.990;2023-02-26T08:10:41;4.05;;;2.15;;
5416;SDS011;2731;50.754;12.990;2023-02-26T08:13:09;3.42;;;1.95;;
5416;SDS011;2731;50.754;12.990;2023-02-26T08:15:36;3.50;;;1.67;;
5416;SDS011;2731;50.754;12.990;2023-02-26T08:18:03;3.67;;;2.10;;
5416;SDS011;2731;50.754;12.990;2023-02-26T08:20:31;5.72;;;2.28;;
5416;SDS011;2731;50.754;12.990;2023-02-26T08:22:57;3.75;;;1.88;;
5416;SDS011;2731;50.754;12.990;2023-02-26T08:25:23;3.22;;;1.90;;
5416;SDS011;2731;50.754;12.990;2023-02-26T08:27:51;2.97;;;1.83;;
5416;SDS011;2731;50.754;12.990;2023-02-26T08:30:18;5.50;;;1.92;;
5416;SDS011;2731;50.754;12.990;2023-02-26T08:32:46;3.30;;;1.80;;
5416;SDS011;2731;50.754;12.990;2023-02-26T08:35:13;2.63;;;2.10;;
5416;SDS011;2731;50.754;12.990;2023-02-26T08:37:42;8.68;;;1.92;;
5416;SDS011;2731;50.754;12.990;2023-02-26T08:40:10;5.85;;;1.63;;
5416;SDS011;2731;50.754;12.990;2023-02-26T08:42:37;3.03;;;1.75;;
5416;SDS011;2731;50.754;12.990;2023-02-26T08:45:05;2.28;;;1.55;;
5416;SDS011;2731;50.754;12.990;2023-02-26T08:47:32;2.50;;;1.67;;
5416;SDS011;2731;50.754;12.990;2023-02-26T08:49:59;2.00;;;1.40;;
5416;SDS011;2731;50.754;12.990;2023-02-26T08:52:49;4.93;;;1.60;;
5416;SDS011;2731;50.754;12.990;2023-02-26T08:55:16;4.93;;;1.70;;
5416;SDS011;2731;50.754;12.990;2023-02-26T08:57:43;4.90;;;1.63;;
5416;SDS011;2731;50.754;12.990;2023-02-26T09:00:11;3.55;;;2.00;;
5416;SDS011;2731;50.754;12.990;2023-02-26T09:02:41;3.67;;;1.90;;
5416;SDS011;2731;50.754;12.990;2023-02-26T09:05:10;7.35;;;2.40;;
5416;SDS011;2731;50.754;12.990;2023-02-26T09:07:39;3.90;;;2.05;;
5416;SDS011;2731;50.754;12.990;2023-02-26T09:10:06;6.10;;;3.15;;
5416;SDS011;2731;50.754;12.990;2023-02-26T09:12:33;3.83;;;2.03;;
5416;SDS011;2731;50.754;12.990;2023-02-26T09:15:04;2.80;;;1.58;;
5416;SDS011;2731;50.754;12.990;2023-02-26T09:17:33;1.98;;;1.45;;
5416;SDS011;2731;50.754;12.990;2023-02-26T09:20:01;3.92;;;1.70;;
5416;SDS011;2731;50.754;12.990;2023-02-26T09:22:29;2.58;;;1.38;;
5416;SDS011;2731;50.754;12.990;2023-02-26T09:24:56;3.13;;;1.50;;
5416;SDS011;2731;50.754;12.990;2023-02-26T09:27:23;3.05;;;2.00;;
5416;SDS011;2731;50.754;12.990;2023-02-26T09:29:51;2.20;;;1.50;;
5416;SDS011;2731;50.754;12.990;2023-02-26T09:32:18;3.08;;;1.60;;
5416;SDS011;2731;50.754;12.990;2023-02-26T09:34:46;4.00;;;1.67;;
5416;SDS011;2731;50.754;12.990;2023-02-26T09:37:14;4.43;;;1.77;;
5416;SDS011;2731;50.754;12.990;2023-02-26T09:39:41;4.85;;;1.63;;
5416;SDS011;2731;50.754;12.990;2023-02-26T09:44:57;2.53;;;1.88;;
5416;SDS011;2731;50.754;12.990;2023-02-26T09:47:28;2.30;;;1.00;;
5416;SDS011;2731;50.754;12.990;2023-02-26T09:50:19;7.15;;;1.80;;
5416;SDS011;2731;50.754;12.990;2023-02-26T09:53:00;2.45;;;1.25;;
5416;SDS011;2731;50.754;12.990;2023-02-26T09:55:29;6.22;;;1.33;;
5416;SDS011;2731;50.754;12.990;2023-02-26T09:57:58;8.75;;;1.63;;
5416;SDS011;2731;50.754;12.990;2023-02-26T10:00:33;3.53;;;1.20;;
5416;SDS011;2731;50.754;12.990;2023-02-26T10:06:07;1.80;;;0.93;;
5416;SDS011;2731;50.754;12.990;2023-02-26T10:08:25;4.75;;;1.27;;
5416;SDS011;2731;50.754;12.990;2023-02-26T10:11:01;2.67;;;1.02;;
5416;SDS011;2731;50.754;12.990;2023-02-26T10:13:35;1.70;;;0.98;;
5416;SDS011;2731;50.754;12.990;2023-02-26T10:16:08;1.98;;;1.27;;
5416;SDS011;2731;50.754;12.990;2023-02-26T10:18:44;3.03;;;1.65;;
5416;SDS011;2731;50.754;12.990;2023-02-26T10:21:21;2.50;;;1.00;;
5416;SDS011;2731;50.754;12.990;2023-02-26T10:23:55;3.38;;;1.55;;
5416;SDS011;2731;50.754;12.990;2023-02-26T10:26:22;5.95;;;1.38;;
5416;SDS011;2731;50.754;12.990;2023-02-26T10:29:13;4.60;;;1.90;;
5416;SDS011;2731;50.754;12.990;2023-02-26T10:34:46;2.10;;;1.10;;
5416;SDS011;2731;50.754;12.990;2023-02-26T10:42:17;2.15;;;1.65;;
5416;SDS011;2731;50.754;12.990;2023-02-26T10:50:16;2.75;;;1.27;;
5416;SDS011;2731;50.754;12.990;2023-02-26T10:52:46;3.67;;;1.65;;
5416;SDS011;2731;50.754;12.990;2023-02-26T11:00:31;2.72;;;1.35;;
5416;SDS011;2731;50.754;12.990;2023-02-26T11:03:01;2.67;;;1.33;;
5416;SDS011;2731;50.754;12.990;2023-02-26T11:05:33;3.83;;;1.90;;
5416;SDS011;2731;50.754;12.990;2023-02-26T11:08:05;4.40;;;1.98;;
5416;SDS011;2731;50.754;12.990;2023-02-26T11:10:44;3.17;;;1.33;;
5416;SDS011;2731;50.754;12.990;2023-02-26T11:13:22;4.38;;;1.50;;
5416;SDS011;2731;50.754;12.990;2023-02-26T11:15:52;7.55;;;1.75;;
5416;SDS011;2731;50.754;12.990;2023-02-26T11:18:29;2.30;;;1.65;;
5416;SDS011;2731;50.754;12.990;2023-02-26T11:21:06;1.77;;;1.05;;
5416;SDS011;2731;50.754;12.990;2023-02-26T11:23:34;2.40;;;1.52;;
5416;SDS011;2731;50.754;12.990;2023-02-26T11:26:07;6.20;;;1.15;;
5416;SDS011;2731;50.754;12.990;2023-02-26T11:28:48;3.15;;;1.30;;
5416;SDS011;2731;50.754;12.990;2023-02-26T11:31:19;4.18;;;1.40;;
5416;SDS011;2731;50.754;12.990;2023-02-26T11:33:51;3.42;;;1.42;;
5416;SDS011;2731;50.754;12.990;2023-02-26T11:36:22;2.65;;;1.40;;
5416;SDS011;2731;50.754;12.990;2023-02-26T11:38:57;2.65;;;1.02;;
5416;SDS011;2731;50.754;12.990;2023-02-26T11:41:26;2.53;;;1.30;;
5416;SDS011;2731;50.754;12.990;2023-02-26T11:43:59;2.95;;;1.58;;
5416;SDS011;2731;50.754;12.990;2023-02-26T11:46:27;5.75;;;1.70;;
5416;SDS011;2731;50.754;12.990;2023-02-26T11:48:55;4.63;;;1.60;;
5416;SDS011;2731;50.754;12.990;2023-02-26T11:51:25;6.15;;;1.67;;
5416;SDS011;2731;50.754;12.990;2023-02-26T11:54:00;2.33;;;1.05;;
5416;SDS011;2731;50.754;12.990;2023-02-26T11:56:40;2.53;;;1.30;;
5416;SDS011;2731;50.754;12.990;2023-02-26T11:59:14;4.43;;;1.77;;
5416;SDS011;2731;50.754;12.990;2023-02-26T12:01:44;2.45;;;0.90;;
5416;SDS011;2731;50.754;12.990;2023-02-26T12:04:12;3.90;;;1.17;;
5416;SDS011;2731;50.754;12.990;2023-02-26T12:06:39;3.38;;;1.20;;
5416;SDS011;2731;50.754;12.990;2023-02-26T12:09:10;3.92;;;1.25;;
5416;SDS011;2731;50.754;12.990;2023-02-26T12:14:28;2.17;;;1.30;;
5416;SDS011;2731;50.754;12.990;2023-02-26T12:17:10;3.05;;;1.55;;
5416;SDS011;2731;50.754;12.990;2023-02-26T12:20:02;3.85;;;1.25;;
5416;SDS011;2731;50.754;12.990;2023-02-26T12:38:34;1.48;;;0.90;;
5416;SDS011;2731;50.754;12.990;2023-02-26T12:43:51;4.38;;;1.55;;
5416;SDS011;2731;50.754;12.990;2023-02-26T12:49:22;1.23;;;0.90;;
5416;SDS011;2731;50.754;12.990;2023-02-26T12:52:01;3.50;;;1.02;;
5416;SDS011;2731;50.754;12.990;2023-02-26T12:59:53;2.58;;;1.08;;
5416;SDS011;2731;50.754;12.990;2023-02-26T13:20:53;3.70;;;1.10;;
5416;SDS011;2731;50.754;12.990;2023-02-26T13:23:28;3.40;;;1.15;;
5416;SDS011;2731;50.754;12.990;2023-02-26T13:25:57;1.65;;;0.70;;
5416;SDS011;2731;50.754;12.990;2023-02-26T13:28:44;2.08;;;0.90;;
5416;SDS011;2731;50.754;12.990;2023-02-26T13:31:22;0.70;;;0.70;;
5416;SDS011;2731;50.754;12.990;2023-02-26T13:33:51;3.28;;;0.90;;
5416;SDS011;2731;50.754;12.990;2023-02-26T13:36:19;3.45;;;0.93;;
5416;SDS011;2731;50.754;12.990;2023-02-26T13:49:41;2.67;;;0.95;;
5416;SDS011;2731;50.754;12.990;2023-02-26T13:52:26;1.23;;;0.80;;
5416;SDS011;2731;50.754;12.990;2023-02-26T13:54:53;3.60;;;0.88;;
5416;SDS011;2731;50.754;12.990;2023-02-26T13:57:51;4.53;;;0.88;;
5416;SDS011;2731;50.754;12.990;2023-02-26T14:02:47;3.35;;;1.23;;
5416;SDS011;2731;50.754;12.990;2023-02-26T14:08:09;1.98;;;0.80;;
5416;SDS011;2731;50.754;12.990;2023-02-26T14:10:45;4.25;;;0.82;;
5416;SDS011;2731;50.754;12.990;2023-02-26T14:23:49;1.70;;;0.82;;
5416;SDS011;2731;50.754;12.990;2023-02-26T14:26:18;2.85;;;1.15;;
5416;SDS011;2731;50.754;12.990;2023-02-26T14:29:11;3.30;;;0.93;;
5416;SDS011;2731;50.754;12.990;2023-02-26T14:34:36;1.38;;;0.70;;
5416;SDS011;2731;50.754;12.990;2023-02-26T14:37:10;3.08;;;0.88;;
5416;SDS011;2731;50.754;12.990;2023-02-26T14:39:38;4.35;;;1.30;;
5416;SDS011;2731;50.754;12.990;2023-02-26T14:42:17;2.05;;;1.08;;
5416;SDS011;2731;50.754;12.990;2023-02-26T14:45:09;2.35;;;0.90;;
5416;SDS011;2731;50.754;12.990;2023-02-26T14:47:39;2.05;;;0.90;;
5416;SDS011;2731;50.754;12.990;2023-02-26T14:50:08;2.95;;;1.17;;
5416;SDS011;2731;50.754;12.990;2023-02-26T15:08:58;1.88;;;1.00;;
5416;SDS011;2731;50.754;12.990;2023-02-26T15:11:40;4.00;;;0.68;;
5416;SDS011;2731;50.754;12.990;2023-02-26T15:14:23;1.00;;;0.90;;
5416;SDS011;2731;50.754;12.990;2023-02-26T15:17:08;4.20;;;1.45;;
5416;SDS011;2731;50.754;12.990;2023-02-26T15:19:51;2.95;;;0.88;;
5416;SDS011;2731;50.754;12.990;2023-02-26T15:22:56;2.00;;;0.80;;
5416;SDS011;2731;50.754;12.990;2023-02-26T15:25:31;2.53;;;0.85;;
5416;SDS011;2731;50.754;12.990;2023-02-26T15:28:03;2.20;;;0.63;;
5416;SDS011;2731;50.754;12.990;2023-02-26T15:30:31;1.23;;;0.82;;
5416;SDS011;2731;50.754;12.990;2023-02-26T15:33:02;0.80;;;0.55;;
5416;SDS011;2731;50.754;12.990;2023-02-26T15:35:30;3.53;;;0.52;;
5416;SDS011;2731;50.754;12.990;2023-02-26T15:38:00;3.42;;;0.98;;
5416;SDS011;2731;50.754;12.990;2023-02-26T15:40:30;1.77;;;0.80;;
5416;SDS011;2731;50.754;12.990;2023-02-26T15:42:58;1.95;;;0.68;;
5416;SDS011;2731;50.754;12.990;2023-02-26T15:47:59;1.63;;;0.57;;
5416;SDS011;2731;50.754;12.990;2023-02-26T15:50:27;2.55;;;0.85;;
5416;SDS011;2731;50.754;12.990;2023-02-26T15:53:00;5.15;;;1.20;;
5416;SDS011;2731;50.754;12.990;2023-02-26T15:55:28;2.00;;;0.87;;
5416;SDS011;2731;50.754;12.990;2023-02-26T15:57:58;1.80;;;0.93;;
5416;SDS011;2731;50.754;12.990;2023-02-26T16:00:27;1.15;;;0.47;;
5416;SDS011;2731;50.754;12.990;2023-02-26T16:02:57;1.02;;;0.68;;
5416;SDS011;2731;50.754;12.990;2023-02-26T16:05:24;1.70;;;1.13;;
5416;SDS011;2731;50.754;12.990;2023-02-26T16:07:50;1.17;;;0.80;;
5416;SDS011;2731;50.754;12.990;2023-02-26T16:10:30;1.52;;;0.73;;
5416;SDS011;2731;50.754;12.990;2023-02-26T16:13:00;4.00;;;0.90;;
5416;SDS011;2731;50.754;12.990;2023-02-26T16:15:31;2.78;;;1.08;;
5416;SDS011;2731;50.754;12.990;2023-02-26T16:18:00;4.30;;;1.45;;
5416;SDS011;2731;50.754;12.990;2023-02-26T16:20:31;2.20;;;1.33;;
5416;SDS011;2731;50.754;12.990;2023-02-26T16:23:03;2.60;;;1.23;;
5416;SDS011;2731;50.754;12.990;2023-02-26T16:25:34;2.58;;;0.80;;
5416;SDS011;2731;50.754;12.990;2023-02-26T16:28:06;3.63;;;1.23;;
5416;SDS011;2731;50.754;12.990;2023-02-26T16:30:39;4.20;;;1.35;;
5416;SDS011;2731;50.754;12.990;2023-02-26T16:33:11;3.67;;;1.05;;
5416;SDS011;2731;50.754;12.990;2023-02-26T16:35:42;2.40;;;0.90;;
5416;SDS011;2731;50.754;12.990;2023-02-26T16:38:18;1.70;;;0.75;;
5416;SDS011;2731;50.754;12.990;2023-02-26T16:40:55;3.65;;;1.10;;
5416;SDS011;2731;50.754;12.990;2023-02-26T16:45:53;1.25;;;0.93;;
5416;SDS011;2731;50.754;12.990;2023-02-26T16:48:25;2.72;;;0.65;;
5416;SDS011;2731;50.754;12.990;2023-02-26T16:51:04;0.77;;;0.77;;
5416;SDS011;2731;50.754;12.990;2023-02-26T16:53:34;2.13;;;1.00;;
5416;SDS011;2731;50.754;12.990;2023-02-26T16:56:02;3.92;;;0.85;;
5416;SDS011;2731;50.754;12.990;2023-02-26T16:58:28;2.47;;;1.08;;
5416;SDS011;2731;50.754;12.990;2023-02-26T17:01:03;5.03;;;1.70;;
5416;SDS011;2731;50.754;12.990;2023-02-26T17:03:31;2.00;;;0.98;;
5416;SDS011;2731;50.754;12.990;2023-02-26T17:05:58;2.15;;;1.35;;
5416;SDS011;2731;50.754;12.990;2023-02-26T17:08:49;4.30;;;1.33;;
5416;SDS011;2731;50.754;12.990;2023-02-26T17:11:28;3.25;;;1.30;;
5416;SDS011;2731;50.754;12.990;2023-02-26T17:14:39;2.97;;;1.45;;
5416;SDS011;2731;50.754;12.990;2023-02-26T17:16:46;5.95;;;1.05;;
5416;SDS011;2731;50.754;12.990;2023-02-26T17:19:14;2.67;;;1.42;;
5416;SDS011;2731;50.754;12.990;2023-02-26T17:21:44;2.83;;;1.20;;
5416;SDS011;2731;50.754;12.990;2023-02-26T17:24:20;2.70;;;1.13;;
5416;SDS011;2731;50.754;12.990;2023-02-26T17:26:51;3.38;;;1.30;;
5416;SDS011;2731;50.754;12.990;2023-02-26T17:29:25;5.28;;;1.10;;
5416;SDS011;2731;50.754;12.990;2023-02-26T17:31:58;3.95;;;2.42;;
5416;SDS011;2731;50.754;12.990;2023-02-26T17:34:26;2.55;;;1.30;;
5416;SDS011;2731;50.754;12.990;2023-02-26T17:36:58;6.05;;;1.48;;
5416;SDS011;2731;50.754;12.990;2023-02-26T17:39:32;4.25;;;1.17;;
5416;SDS011;2731;50.754;12.990;2023-02-26T17:41:59;3.75;;;1.63;;
5416;SDS011;2731;50.754;12.990;2023-02-26T17:44:30;4.05;;;1.63;;
5416;SDS011;2731;50.754;12.990;2023-02-26T17:46:59;4.68;;;1.70;;
5416;SDS011;2731;50.754;12.990;2023-02-26T17:49:28;3.78;;;1.60;;
5416;SDS011;2731;50.754;12.990;2023-02-26T17:51:54;3.75;;;1.52;;
5416;SDS011;2731;50.754;12.990;2023-02-26T17:54:25;3.10;;;1.73;;
5416;SDS011;2731;50.754;12.990;2023-02-26T17:56:53;3.92;;;1.77;;
5416;SDS011;2731;50.754;12.990;2023-02-26T17:59:20;2.08;;;1.10;;
5416;SDS011;2731;50.754;12.990;2023-02-26T18:01:47;10.63;;;1.60;;
5416;SDS011;2731;50.754;12.990;2023-02-26T18:04:13;6.13;;;2.42;;
5416;SDS011;2731;50.754;12.990;2023-02-26T18:06:42;5.30;;;2.42;;
5416;SDS011;2731;50.754;12.990;2023-02-26T18:09:11;4.20;;;2.30;;
5416;SDS011;2731;50.754;12.990;2023-02-26T18:11:38;6.90;;;2.17;;